Arcadia, MI

3:27 AM EST on March 06, 2015 (GMT -0500)
Benzie | Change Station
CLOSE
Current Station
Personal Weather Station
Location: Benzonia, MI
Elevation: 811 ft
Nearby Weather Stations

Elev 811 ft 44.54 °N, 86.11 °W | Updated 12 minutes ago

Partly Cloudy
Partly Cloudy
5.0 °F
Feels Like 5 °F
N
0.0
Wind Variable Wind from SW
Gusts 0.0 mph

Today
High -- | Low -- °F
--% Chance of Precip.
Yesterday
High -- | Low -- °F
Precip. -- in
7:13 AM 6:39 PM
Full, 100% visible
Pressure 30.36 in
Visibility 10.0 miles
Clouds Clear
Windchill 5 °F
Dew Point Not available.
Humidity Not available.
Rainfall in
Snow Depth Not available.
UV 0 out of 12
Pollen .40 out of 12
Air Quality Not available.
Flu Activity Not available.
METAR KFKS 060816Z AUTO 25006KT 10SM CLR M09/M15 A3036 RMK AO2 T10901150

More Conditions Fewer Conditions

Pressure 30.36 in
Visibility 10.0 miles
Clouds Clear
Windchill 5 °F
Dew Point Not available.
Humidity Not available.
Rainfall in
Snow Depth Not available.
UV 0 out of 12
Pollen .40 out of 12
Air Quality Not available.
Flu Activity Not available.
METAR KFKS 060816Z AUTO 25006KT 10SM CLR M09/M15 A3036 RMK AO2 T10901150

More Conditions Fewer Conditions

Nowcast | as of 3:00 am EST on March 6, 2015

At 4 am...partly cloudy. Temperature 8 above. Southwest winds 7 mph. Southwest winds 10 mph. Wind chill 5 below. Southwest winds 13 mph. Wind chill 1 below. At 10 am...mostly clear. Temperature 17. Southwest winds 16 mph.

×

10-Day Weather Forecast

Almanac

Astronomy

Mar. 06, 2015 Rise Set
Actual Time
Civil Twilight
Nautical Twilight
Astronomical Twilight
Moon
Length of Visible Light
Length of Day
Tomorrow will be .
, % of the Moon is Illuminated

Today's Extremes

State Highs State Lows

Community

WunderPhotos

Upload Photos

1,803,206 photos uploaded!

WunderBlogs® & News

Nearby

Air Quality

  Air Quality AQ Index Pollutant
Not available.

Snow Depth

Station Depth Elevation

Earthquake Activity

City Distance Mag. Time & Date
Minimum magnitude displayed is 2.5.

Coastal Water Temperatures

Place Temperature

Nearby Weather Stations